Time;durP1;ratioP1;P1;durP2;ratioP2;P2;SDS_P1;SDS_P2;PMS_P1;PMS_P2;Temp;Humidity;BMP_temperature;BMP_pressure;BME280_temperature;BME280_humidity;BME280_pressure;Samples;Min_cycle;Max_cycle;Signal;HPM_P1;HPM_P2
2023/05/03 00:01:30;;;;;;;;;;;;;;;;;;4987111;28;19929;-64
2023/05/03 00:03:55;;;;;;;;;;;;;;;;;;4954611;28;20024;-64
2023/05/03 00:06:24;;;;;;;;;;;;;;;;;;4990553;28;19952;-64
2023/05/03 00:08:50;;;;;;;;;;;;;;;;;;4971669;28;19921;-64
2023/05/03 00:11:17;;;;;;;;;;;;;;;;;;4972524;28;20282;-64
2023/05/03 00:13:44;;;;;;;;;;;;;;;;;;4989846;28;19929;-64
2023/05/03 00:16:12;;;;;;;;;;;;;;;;;;4956514;28;19932;-64
2023/05/03 00:18:37;;;;;;;;;;;;;;;;;;4989590;28;19921;-64
2023/05/03 00:21:02;;;;;;;;;;;;;;;;;;4953154;28;19925;-64
2023/05/03 00:23:28;;;;;;;;;;;;;;;;;;4973085;28;20286;-64
2023/05/03 00:25:53;;;;;;;;;;;;;;;;;;4971299;28;19921;-64
2023/05/03 00:28:18;;;;;;;;;;;;;;;;;;4987079;28;20369;-64
2023/05/03 00:30:46;;;;;;;;;;;;;;;;;;4970332;28;19963;-64
2023/05/03 00:33:11;;;;;;;;;;;;;;;;;;4947876;28;19925;-64
2023/05/03 00:35:40;;;;;;;;;;;;;;;;;;4973224;28;19977;-64
2023/05/03 00:38:08;;;;;;;;;;;;;;;;;;4971833;28;20439;-64
2023/05/03 00:40:33;;;;;;;;;;;;;;;;;;4969058;28;19922;-64
2023/05/03 00:43:01;;;;;;;;;;;;;;;;;;4986046;28;19956;-64
2023/05/03 00:45:26;;;;;;;;;;;;;;;;;;4973910;28;20339;-64
2023/05/03 00:47:51;;;;;;;;;;;;;;;;;;4989225;28;20114;-64
2023/05/03 00:50:19;;;;;;;;;;;;;;;;;;4974121;28;20831;-64
2023/05/03 00:52:50;;;;;;;;;;;;;;;;;;4956052;28;20032;-64
2023/05/03 00:55:18;;;;;;;;;;;;;;;;;;4969824;28;19921;-64
2023/05/03 00:57:43;;;;;;;;;;;;;;;;;;4972297;28;20000;-64
2023/05/03 01:00:09;;;;;;;;;;;;;;;;;;4986376;28;20012;-64
2023/05/03 01:02:34;;;;;;;;;;;;;;;;;;4968638;28;19967;-64
2023/05/03 01:05:01;;;;;;;;;;;;;;;;;;4989353;28;19922;-64
2023/05/03 01:07:26;;;;;;;;;;;;;;;;;;4972729;28;20426;-64
2023/05/03 01:09:51;;;;;;;;;;;;;;;;;;4983764;28;20483;-64
2023/05/03 01:12:17;;;;;;;;;;;;;;;;;;4953743;28;19921;-64
2023/05/03 01:14:44;;;;;;;;;;;;;;;;;;4973287;28;19926;-64
2023/05/03 01:17:10;;;;;;;;;;;;;;;;;;4955508;28;19921;-64
2023/05/03 01:19:38;;;;;;;;;;;;;;;;;;4973772;28;20430;-64
2023/05/03 01:22:06;;;;;;;;;;;;;;;;;;4972319;28;19922;-64
2023/05/03 01:24:32;;;;;;;;;;;;;;;;;;4972570;28;20016;-65
2023/05/03 01:26:58;;;;;;;;;;;;;;;;;;4971045;28;19921;-63
2023/05/03 01:29:23;;;;;;;;;;;;;;;;;;4972310;28;20051;-63
2023/05/03 01:31:51;;;;;;;;;;;;;;;;;;4988605;28;19957;-63
2023/05/03 01:34:19;;;;;;;;;;;;;;;;;;4986806;28;19925;-63
2023/05/03 01:36:47;;;;;;;;;;;;;;;;;;4971022;28;19922;-64
2023/05/03 01:39:12;;;;;;;;;;;;;;;;;;4937563;28;20582;-63
2023/05/03 01:41:40;;;;;;;;;;;;;;;;;;4984963;28;20283;-63
2023/05/03 01:44:05;;;;;;;;;;;;;;;;;;4986913;28;19977;-63
2023/05/03 01:46:33;;;;;;;;;;;;;;;;;;4972141;28;19921;-63
2023/05/03 01:49:01;;;;;;;;;;;;;;;;;;4988493;28;19928;-63
2023/05/03 01:51:29;;;;;;;;;;;;;;;;;;4972465;28;19922;-64
2023/05/03 01:53:57;;;;;;;;;;;;;;;;;;4990422;28;19925;-62
2023/05/03 01:56:28;;;;;;;;;;;;;;;;;;4969467;28;19940;-63
2023/05/03 01:58:56;;;;;;;;;;;;;;;;;;4976187;28;19928;-62
2023/05/03 02:01:21;;;;;;;;;;;;;;;;;;4971457;28;19922;-63
2023/05/03 02:03:46;;;;;;;;;;;;;;;;;;4957561;28;20261;-63
2023/05/03 02:06:14;;;;;;;;;;;;;;;;;;4987830;28;19960;-63
2023/05/03 02:08:42;;;;;;;;;;;;;;;;;;4971402;28;19945;-63
2023/05/03 02:11:07;;;;;;;;;;;;;;;;;;4959159;28;19928;-64
2023/05/03 02:13:35;;;;;;;;;;;;;;;;;;4958003;28;19932;-63
2023/05/03 02:16:03;;;;;;;;;;;;;;;;;;4994236;28;19918;-63
2023/05/03 02:18:32;;;;;;;;;;;;;;;;;;4990883;28;20348;-63
2023/05/03 02:21:00;;;;;;;;;;;;;;;;;;4992767;28;19969;-64
2023/05/03 02:23:25;;;;;;;;;;;;;;;;;;4974167;28;19928;-63
2023/05/03 02:25:50;;;;;;;;;;;;;;;;;;4974815;28;19945;-63
2023/05/03 02:28:16;;;;;;;;;;;;;;;;;;4958722;28;19921;-64
2023/05/03 02:30:46;;;;;;;;;;;;;;;;;;4974411;28;20026;-64
2023/05/03 02:33:12;;;;;;;;;;;;;;;;;;4970844;28;19925;-64
2023/05/03 02:35:37;;;;;;;;;;;;;;;;;;4973019;28;20651;-64
2023/05/03 02:38:02;;;;;;;;;;;;;;;;;;4974788;28;19921;-64
2023/05/03 02:40:30;;;;;;;;;;;;;;;;;;4973189;28;19932;-64
2023/05/03 02:42:56;;;;;;;;;;;;;;;;;;4960235;28;19928;-64
2023/05/03 02:45:21;;;;;;;;;;;;;;;;;;4992101;28;20068;-64
2023/05/03 02:47:46;;;;;;;;;;;;;;;;;;4992507;28;19944;-65
2023/05/03 02:50:12;;;;;;;;;;;;;;;;;;4960118;28;19949;-63
2023/05/03 02:52:37;;;;;;;;;;;;;;;;;;4974828;28;19922;-63
2023/05/03 02:55:05;;;;;;;;;;;;;;;;;;4974945;28;19917;-63
2023/05/03 02:57:30;;;;;;;;;;;;;;;;;;4971470;28;19932;-64
2023/05/03 02:59:55;;;;;;;;;;;;;;;;;;4973669;28;19985;-63
2023/05/03 03:02:21;;;;;;;;;;;;;;;;;;4971578;28;19925;-64
2023/05/03 03:04:49;;;;;;;;;;;;;;;;;;4989856;28;19924;-64
2023/05/03 03:07:14;;;;;;;;;;;;;;;;;;4954411;28;20540;-64
2023/05/03 03:09:40;;;;;;;;;;;;;;;;;;4988480;28;19979;-64
2023/05/03 03:12:05;;;;;;;;;;;;;;;;;;4988562;28;19921;-64
2023/05/03 03:14:30;;;;;;;;;;;;;;;;;;4956405;28;20436;-64
2023/05/03 03:16:56;;;;;;;;;;;;;;;;;;4987442;28;19918;-63
2023/05/03 03:19:21;;;;;;;;;;;;;;;;;;4969855;28;19936;-63
2023/05/03 03:21:46;;;;;;;;;;;;;;;;;;4973137;28;20004;-64
2023/05/03 03:24:11;;;;;;;;;;;;;;;;;;4971574;28;19926;-64
2023/05/03 03:26:37;;;;;;;;;;;;;;;;;;4988684;28;19952;-64
2023/05/03 03:29:02;;;;;;;;;;;;;;;;;;4955199;28;21486;-64
2023/05/03 03:31:27;;;;;;;;;;;;;;;;;;4955070;28;19922;-64
2023/05/03 03:33:53;;;;;;;;;;;;;;;;;;4955269;28;20229;-64
2023/05/03 03:36:18;;;;;;;;;;;;;;;;;;4987867;28;20040;-64
2023/05/03 03:38:44;;;;;;;;;;;;;;;;;;4967274;28;20369;-63
2023/05/03 03:41:09;;;;;;;;;;;;;;;;;;4956635;28;20515;-63
2023/05/03 03:43:35;;;;;;;;;;;;;;;;;;4954928;28;19929;-63
2023/05/03 03:46:00;;;;;;;;;;;;;;;;;;4989921;28;19932;-63
2023/05/03 03:48:25;;;;;;;;;;;;;;;;;;4990556;28;20339;-64
2023/05/03 03:50:50;;;;;;;;;;;;;;;;;;4973530;28;20744;-63
2023/05/03 03:53:20;;;;;;;;;;;;;;;;;;4972938;28;19935;-64
2023/05/03 03:55:48;;;;;;;;;;;;;;;;;;4971682;28;20358;-64
2023/05/03 03:58:13;;;;;;;;;;;;;;;;;;4990928;28;19922;-65
2023/05/03 04:00:39;;;;;;;;;;;;;;;;;;4983986;28;20381;-63
2023/05/03 04:03:07;;;;;;;;;;;;;;;;;;4954444;28;20502;-63
2023/05/03 04:05:36;;;;;;;;;;;;;;;;;;4906144;28;1893164;-63
2023/05/03 04:08:01;;;;;;;;;;;;;;;;;;4988318;28;19922;-63
2023/05/03 04:10:26;;;;;;;;;;;;;;;;;;4991763;28;19952;-63
2023/05/03 04:12:52;;;;;;;;;;;;;;;;;;4952271;28;20415;-64
2023/05/03 04:15:17;;;;;;;;;;;;;;;;;;4970812;28;19921;-64
2023/05/03 04:17:45;;;;;;;;;;;;;;;;;;4952795;28;20016;-64
2023/05/03 04:20:10;;;;;;;;;;;;;;;;;;4971715;28;19917;-64
2023/05/03 04:22:36;;;;;;;;;;;;;;;;;;4988944;28;19967;-64
2023/05/03 04:25:04;;;;;;;;;;;;;;;;;;4972499;28;19916;-64
2023/05/03 04:27:29;;;;;;;;;;;;;;;;;;4972617;28;20411;-64
2023/05/03 04:30:00;;;;;;;;;;;;;;;;;;4991234;28;19921;-64
2023/05/03 04:32:28;;;;;;;;;;;;;;;;;;4954824;28;20036;-64
2023/05/03 04:34:53;;;;;;;;;;;;;;;;;;4990076;28;20291;-63
2023/05/03 04:37:19;;;;;;;;;;;;;;;;;;4956023;28;19941;-63
2023/05/03 04:39:46;;;;;;;;;;;;;;;;;;4986658;28;19922;-64
2023/05/03 04:42:14;;;;;;;;;;;;;;;;;;4990200;28;19917;-65
2023/05/03 04:44:43;;;;;;;;;;;;;;;;;;4972287;28;20137;-64
2023/05/03 04:47:08;;;;;;;;;;;;;;;;;;4950041;28;20794;-64
2023/05/03 04:49:38;;;;;;;;;;;;;;;;;;4988305;28;20663;-64
2023/05/03 04:52:06;;;;;;;;;;;;;;;;;;4986035;28;20011;-64
2023/05/03 04:54:31;;;;;;;;;;;;;;;;;;4968460;28;19925;-65
2023/05/03 04:57:02;;;;;;;;;;;;;;;;;;4970956;28;19917;-64
2023/05/03 04:59:27;;;;;;;;;;;;;;;;;;4954603;28;19948;-64
2023/05/03 05:01:52;;;;;;;;;;;;;;;;;;4954004;28;19928;-64
2023/05/03 05:04:18;;;;;;;;;;;;;;;;;;4966790;28;20176;-64
2023/05/03 05:06:43;;;;;;;;;;;;;;;;;;4987999;28;19935;-64
2023/05/03 05:09:09;;;;;;;;;;;;;;;;;;4970868;28;20373;-65
2023/05/03 05:11:34;;;;;;;;;;;;;;;;;;4972885;28;20053;-65
2023/05/03 05:13:59;;;;;;;;;;;;;;;;;;4971391;28;19944;-64
2023/05/03 05:16:25;;;;;;;;;;;;;;;;;;4987930;28;19926;-64
2023/05/03 05:18:53;;;;;;;;;;;;;;;;;;4987169;28;20161;-64
2023/05/03 05:21:19;;;;;;;;;;;;;;;;;;4989955;28;20019;-64
2023/05/03 05:23:44;;;;;;;;;;;;;;;;;;4956058;28;20418;-65
2023/05/03 05:26:12;;;;;;;;;;;;;;;;;;4969923;28;20360;-65
2023/05/03 05:28:37;;;;;;;;;;;;;;;;;;4984248;28;19921;-65
2023/05/03 05:31:06;;;;;;;;;;;;;;;;;;4974723;28;19932;-65
2023/05/03 05:33:34;;;;;;;;;;;;;;;;;;4991217;28;19933;-64
2023/05/03 05:36:02;;;;;;;;;;;;;;;;;;4976374;28;19926;-64
2023/05/03 05:38:30;;;;;;;;;;;;;;;;;;4975062;28;19917;-64
2023/05/03 05:40:56;;;;;;;;;;;;;;;;;;4976263;28;20212;-65
2023/05/03 05:43:24;;;;;;;;;;;;;;;;;;4975968;28;19976;-64
2023/05/03 05:45:50;;;;;;;;;;;;;;;;;;4974877;28;19918;-65
2023/05/03 05:48:17;;;;;;;;;;;;;;;;;;4992295;28;20324;-65
2023/05/03 05:50:45;;;;;;;;;;;;;;;;;;4975904;28;19987;-64
2023/05/03 05:53:11;;;;;;;;;;;;;;;;;;4993943;28;21797;-64
2023/05/03 05:55:38;;;;;;;;;;;;;;;;;;4975137;28;20008;-64
2023/05/03 05:58:08;;;;;;;;;;;;;;;;;;4991604;28;20424;-64
2023/05/03 06:00:36;;;;;;;;;;;;;;;;;;4990502;28;19933;-64
2023/05/03 06:03:04;;;;;;;;;;;;;;;;;;4974085;28;19921;-64
2023/05/03 06:05:29;;;;;;;;;;;;;;;;;;4973780;28;19976;-63
2023/05/03 06:07:55;;;;;;;;;;;;;;;;;;4992232;28;19928;-64
2023/05/03 06:10:20;;;;;;;;;;;;;;;;;;4973374;28;19918;-64
2023/05/03 06:12:45;;;;;;;;;;;;;;;;;;4975273;28;19922;-64
2023/05/03 06:15:13;;;;;;;;;;;;;;;;;;4973429;28;20016;-64
2023/05/03 06:17:44;;;;;;;;;;;;;;;;;;4977550;28;19917;-64
2023/05/03 06:20:12;;;;;;;;;;;;;;;;;;4992007;28;19945;-63
2023/05/03 06:22:43;;;;;;;;;;;;;;;;;;4954569;28;20431;-64
2023/05/03 06:25:13;;;;;;;;;;;;;;;;;;4973332;28;19928;-64
2023/05/03 06:27:41;;;;;;;;;;;;;;;;;;4990560;28;19922;-64
2023/05/03 06:30:07;;;;;;;;;;;;;;;;;;4993756;28;19933;-64
2023/05/03 06:32:35;;;;;;;;;;;;;;;;;;4988280;28;20424;-64
2023/05/03 06:35:01;;;;;;;;;;;;;;;;;;4976093;28;19929;-63
2023/05/03 06:37:28;;;;;;;;;;;;;;;;;;4973347;28;19947;-64
2023/05/03 06:39:54;;;;;;;;;;;;;;;;;;4990269;28;20513;-64
2023/05/03 06:42:19;;;;;;;;;;;;;;;;;;4973718;28;20289;-62
2023/05/03 06:44:45;;;;;;;;;;;;;;;;;;4992686;28;19921;-63
2023/05/03 06:47:13;;;;;;;;;;;;;;;;;;4992370;28;19917;-63
2023/05/03 06:49:38;;;;;;;;;;;;;;;;;;4972665;28;20053;-63
2023/05/03 06:52:06;;;;;;;;;;;;;;;;;;4968632;28;20539;-63
2023/05/03 06:54:31;;;;;;;;;;;;;;;;;;4974518;28;19990;-63
2023/05/03 06:56:57;;;;;;;;;;;;;;;;;;4973042;28;19925;-63
2023/05/03 06:59:23;;;;;;;;;;;;;;;;;;4959329;28;20035;-63
2023/05/03 07:01:49;;;;;;;;;;;;;;;;;;4973656;28;19921;-63
2023/05/03 07:04:15;;;;;;;;;;;;;;;;;;4968961;28;20388;-63
2023/05/03 07:06:40;;;;;;;;;;;;;;;;;;4971401;28;19929;-64
2023/05/03 07:09:06;;;;;;;;;;;;;;;;;;4974223;28;19921;-62
2023/05/03 07:11:33;;;;;;;;;;;;;;;;;;4972413;28;20040;-63
2023/05/03 07:14:01;;;;;;;;;;;;;;;;;;4972825;28;19961;-63
2023/05/03 07:16:27;;;;;;;;;;;;;;;;;;4971508;28;20012;-63
2023/05/03 07:18:53;;;;;;;;;;;;;;;;;;4965097;28;19944;-63
2023/05/03 07:21:21;;;;;;;;;;;;;;;;;;4986765;28;20553;-63
2023/05/03 07:23:47;;;;;;;;;;;;;;;;;;4970196;28;19917;-63
2023/05/03 07:26:15;;;;;;;;;;;;;;;;;;4971953;28;19956;-63
2023/05/03 07:28:43;;;;;;;;;;;;;;;;;;4954398;28;19929;-63
2023/05/03 07:31:13;;;;;;;;;;;;;;;;;;4992258;28;20341;-63
2023/05/03 07:33:39;;;;;;;;;;;;;;;;;;4955232;28;19925;-64
2023/05/03 07:36:04;;;;;;;;;;;;;;;;;;4957473;28;19976;-64
2023/05/03 07:38:29;;;;;;;;;;;;;;;;;;4971752;28;19941;-63
2023/05/03 07:40:55;;;;;;;;;;;;;;;;;;4972174;28;19967;-63
2023/05/03 07:43:22;;;;;;;;;;;;;;;;;;4972209;28;19922;-63
2023/05/03 07:45:47;;;;;;;;;;;;;;;;;;4953800;28;19921;-63
2023/05/03 07:48:13;;;;;;;;;;;;;;;;;;4993495;28;20506;-63
2023/05/03 07:50:38;;;;;;;;;;;;;;;;;;4952807;28;19975;-65
2023/05/03 07:53:04;;;;;;;;;;;;;;;;;;4984635;28;20068;-63
2023/05/03 07:55:31;;;;;;;;;;;;;;;;;;4990170;28;19944;-64
2023/05/03 07:57:58;;;;;;;;;;;;;;;;;;4990772;28;20357;-62
2023/05/03 08:00:23;;;;;;;;;;;;;;;;;;4971420;28;19964;-63
2023/05/03 08:02:49;;;;;;;;;;;;;;;;;;4970188;28;19971;-63
2023/05/03 08:05:16;;;;;;;;;;;;;;;;;;4973573;28;19928;-63
2023/05/03 08:07:41;;;;;;;;;;;;;;;;;;4989556;28;20011;-63
2023/05/03 08:10:09;;;;;;;;;;;;;;;;;;4974227;28;19918;-62
2023/05/03 08:12:34;;;;;;;;;;;;;;;;;;4990257;28;20561;-64
2023/05/03 08:15:05;;;;;;;;;;;;;;;;;;4974913;28;19925;-63
2023/05/03 08:17:33;;;;;;;;;;;;;;;;;;4972753;28;20036;-63
2023/05/03 08:19:59;;;;;;;;;;;;;;;;;;4975124;28;19973;-63
2023/05/03 08:22:27;;;;;;;;;;;;;;;;;;4990092;28;20443;-63
2023/05/03 08:24:55;;;;;;;;;;;;;;;;;;4992628;28;19920;-63
2023/05/03 08:27:20;;;;;;;;;;;;;;;;;;4990080;28;20385;-63
2023/05/03 08:29:46;;;;;;;;;;;;;;;;;;4971962;28;19927;-63
2023/05/03 08:32:11;;;;;;;;;;;;;;;;;;4954265;28;20411;-63
2023/05/03 08:34:41;;;;;;;;;;;;;;;;;;4956698;28;19926;-63
2023/05/03 08:37:12;;;;;;;;;;;;;;;;;;4955115;28;20140;-63
2023/05/03 08:39:40;;;;;;;;;;;;;;;;;;4987294;28;19948;-63
2023/05/03 08:42:05;;;;;;;;;;;;;;;;;;4990536;28;19922;-63
2023/05/03 08:44:31;;;;;;;;;;;;;;;;;;4955845;28;19987;-62
2023/05/03 08:46:56;;;;;;;;;;;;;;;;;;4990258;28;20687;-62
2023/05/03 08:49:24;;;;;;;;;;;;;;;;;;4955119;28;20035;-64
2023/05/03 08:51:52;;;;;;;;;;;;;;;;;;4970621;28;20024;-63
2023/05/03 08:54:19;;;;;;;;;;;;;;;;;;4973493;28;19964;-64
2023/05/03 08:56:46;;;;;;;;;;;;;;;;;;4971097;28;20485;-64
2023/05/03 08:59:11;;;;;;;;;;;;;;;;;;4973845;28;19925;-64
2023/05/03 09:01:40;;;;;;;;;;;;;;;;;;4947940;28;20441;-63
2023/05/03 09:04:05;;;;;;;;;;;;;;;;;;4991484;28;19923;-63
2023/05/03 09:06:33;;;;;;;;;;;;;;;;;;4967452;28;19936;-63
2023/05/03 09:08:58;;;;;;;;;;;;;;;;;;4987259;28;20484;-63
2023/05/03 09:11:23;;;;;;;;;;;;;;;;;;4967637;28;20024;-64
2023/05/03 09:13:54;;;;;;;;;;;;;;;;;;4971146;28;19928;-64
2023/05/03 09:16:20;;;;;;;;;;;;;;;;;;4989629;28;19922;-63
2023/05/03 09:18:45;;;;;;;;;;;;;;;;;;4986914;28;19964;-63
2023/05/03 09:21:10;;;;;;;;;;;;;;;;;;4990306;28;19976;-64
2023/05/03 09:23:36;;;;;;;;;;;;;;;;;;4955406;28;19921;-64
2023/05/03 09:26:01;;;;;;;;;;;;;;;;;;4958511;28;20371;-63
2023/05/03 09:28:26;;;;;;;;;;;;;;;;;;4971213;28;20052;-64
2023/05/03 09:30:52;;;;;;;;;;;;;;;;;;4955894;28;19917;-64
2023/05/03 09:33:21;;;;;;;;;;;;;;;;;;4956102;28;19941;-64
2023/05/03 09:35:49;;;;;;;;;;;;;;;;;;4991305;28;20072;-64
2023/05/03 09:38:17;;;;;;;;;;;;;;;;;;4972957;28;19942;-64
2023/05/03 09:40:42;;;;;;;;;;;;;;;;;;4987522;28;20008;-64
2023/05/03 09:43:07;;;;;;;;;;;;;;;;;;4987403;28;20389;-64
2023/05/03 09:45:34;;;;;;;;;;;;;;;;;;4984036;28;19972;-64
2023/05/03 09:48:01;;;;;;;;;;;;;;;;;;4987725;28;19933;-64
2023/05/03 09:50:27;;;;;;;;;;;;;;;;;;4970456;28;19933;-64
2023/05/03 09:52:52;;;;;;;;;;;;;;;;;;4988280;28;19947;-64
2023/05/03 09:55:17;;;;;;;;;;;;;;;;;;4967771;28;19922;-64
2023/05/03 09:57:44;;;;;;;;;;;;;;;;;;4971217;28;20049;-64
2023/05/03 10:00:12;;;;;;;;;;;;;;;;;;4988995;28;19927;-64
2023/05/03 10:02:37;;;;;;;;;;;;;;;;;;4987191;28;20289;-64
2023/05/03 10:05:03;;;;;;;;;;;;;;;;;;4988281;28;19992;-64
2023/05/03 10:07:32;;;;;;;;;;;;;;;;;;4990044;28;19925;-64
2023/05/03 10:09:58;;;;;;;;;;;;;;;;;;4964185;28;19921;-64
2023/05/03 10:12:26;;;;;;;;;;;;;;;;;;4982760;28;19917;-64
2023/05/03 10:14:51;;;;;;;;;;;;;;;;;;4983695;28;20661;-64
2023/05/03 10:17:17;;;;;;;;;;;;;;;;;;4976892;28;19917;-65
2023/05/03 10:19:45;;;;;;;;;;;;;;;;;;4976211;28;20108;-64
2023/05/03 10:22:10;;;;;;;;;;;;;;;;;;4976154;28;19921;-65
2023/05/03 10:24:35;;;;;;;;;;;;;;;;;;4984538;28;19916;-64
2023/05/03 10:27:01;;;;;;;;;;;;;;;;;;4964902;28;20043;-64
2023/05/03 10:29:26;;;;;;;;;;;;;;;;;;4973228;28;20385;-64
2023/05/03 10:31:51;;;;;;;;;;;;;;;;;;4988375;28;19922;-64
2023/05/03 10:34:19;;;;;;;;;;;;;;;;;;4992304;28;19930;-64
2023/05/03 10:36:45;;;;;;;;;;;;;;;;;;4957572;28;19917;-64
2023/05/03 10:39:13;;;;;;;;;;;;;;;;;;4974029;28;19917;-63
2023/05/03 10:41:40;;;;;;;;;;;;;;;;;;4971138;28;19928;-64
2023/05/03 10:44:06;;;;;;;;;;;;;;;;;;4970833;28;19976;-64
2023/05/03 10:46:31;;;;;;;;;;;;;;;;;;4983763;28;19930;-65
2023/05/03 10:48:57;;;;;;;;;;;;;;;;;;4973087;28;19917;-65
2023/05/03 10:51:25;;;;;;;;;;;;;;;;;;4974824;28;19992;-66
2023/05/03 10:53:53;;;;;;;;;;;;;;;;;;4991575;28;19984;-64
2023/05/03 10:56:19;;;;;;;;;;;;;;;;;;4974604;28;19922;-64
2023/05/03 10:58:44;;;;;;;;;;;;;;;;;;4974031;28;19921;-64
2023/05/03 11:01:09;;;;;;;;;;;;;;;;;;4972390;28;19928;-64
2023/05/03 11:03:35;;;;;;;;;;;;;;;;;;4991887;28;19922;-64
2023/05/03 11:06:04;;;;;;;;;;;;;;;;;;4964246;28;20354;-64
2023/05/03 11:08:36;;;;;;;;;;;;;;;;;;4955402;28;19922;-64
2023/05/03 11:11:01;;;;;;;;;;;;;;;;;;4949372;28;20504;-64
2023/05/03 11:13:29;;;;;;;;;;;;;;;;;;4954758;28;20312;-64
2023/05/03 11:15:55;;;;;;;;;;;;;;;;;;4969209;28;19922;-63
2023/05/03 11:18:20;;;;;;;;;;;;;;;;;;4972372;28;20141;-64
2023/05/03 11:20:45;;;;;;;;;;;;;;;;;;4971788;28;19922;-63
2023/05/03 11:23:11;;;;;;;;;;;;;;;;;;4956892;28;20342;-63
2023/05/03 11:25:37;;;;;;;;;;;;;;;;;;4970321;28;19964;-63
2023/05/03 11:28:03;;;;;;;;;;;;;;;;;;4956339;28;19975;-64
2023/05/03 11:30:31;;;;;;;;;;;;;;;;;;4954089;28;20242;-63
2023/05/03 11:32:59;;;;;;;;;;;;;;;;;;4951911;28;19918;-64
2023/05/03 11:35:25;;;;;;;;;;;;;;;;;;4951570;28;19921;-63
2023/05/03 11:37:51;;;;;;;;;;;;;;;;;;4953448;28;19957;-63
2023/05/03 11:40:17;;;;;;;;;;;;;;;;;;4969089;28;20220;-62
2023/05/03 11:42:44;;;;;;;;;;;;;;;;;;4935899;28;19918;-64
2023/05/03 11:45:10;;;;;;;;;;;;;;;;;;4955379;28;21474;-64
2023/05/03 11:47:35;;;;;;;;;;;;;;;;;;4939053;28;20348;-64
2023/05/03 11:50:06;;;;;;;;;;;;;;;;;;4971956;28;20092;-64
2023/05/03 11:52:36;;;;;;;;;;;;;;;;;;4953067;28;20044;-63
2023/05/03 11:55:04;;;;;;;;;;;;;;;;;;4937580;28;20366;-63
2023/05/03 11:57:29;;;;;;;;;;;;;;;;;;4955052;28;19922;-63
2023/05/03 11:59:57;;;;;;;;;;;;;;;;;;4972464;28;19933;-63
2023/05/03 12:02:23;;;;;;;;;;;;;;;;;;4970832;28;20775;-64
2023/05/03 12:04:48;;;;;;;;;;;;;;;;;;4949344;28;19924;-64
2023/05/03 12:07:14;;;;;;;;;;;;;;;;;;4967931;28;19937;-62
2023/05/03 12:09:39;;;;;;;;;;;;;;;;;;4957999;28;19921;-64
2023/05/03 12:12:04;;;;;;;;;;;;;;;;;;4985382;28;20399;-63
2023/05/03 12:14:30;;;;;;;;;;;;;;;;;;4990372;28;19988;-63
2023/05/03 12:16:58;;;;;;;;;;;;;;;;;;4991636;28;19922;-64
2023/05/03 12:19:23;;;;;;;;;;;;;;;;;;4971712;28;20019;-64
2023/05/03 12:21:52;;;;;;;;;;;;;;;;;;4956498;28;20021;-64
2023/05/03 12:24:18;;;;;;;;;;;;;;;;;;4973507;28;19933;-63
2023/05/03 12:26:46;;;;;;;;;;;;;;;;;;4956500;28;19921;-62
2023/05/03 12:29:15;;;;;;;;;;;;;;;;;;4983438;28;20404;-63
2023/05/03 12:31:40;;;;;;;;;;;;;;;;;;4953554;28;19917;-63
2023/05/03 12:34:06;;;;;;;;;;;;;;;;;;4971466;28;20373;-62
2023/05/03 12:36:34;;;;;;;;;;;;;;;;;;4957099;28;19928;-63
2023/05/03 12:38:59;;;;;;;;;;;;;;;;;;4954655;28;20489;-63
2023/05/03 12:41:30;;;;;;;;;;;;;;;;;;4991046;28;19925;-64
2023/05/03 12:43:58;;;;;;;;;;;;;;;;;;4987043;28;20080;-63
2023/05/03 12:46:26;;;;;;;;;;;;;;;;;;4991000;28;19917;-63
2023/05/03 12:48:54;;;;;;;;;;;;;;;;;;4985631;28;19940;-65
2023/05/03 12:51:19;;;;;;;;;;;;;;;;;;4957661;28;20400;-62
2023/05/03 12:53:48;;;;;;;;;;;;;;;;;;4956539;28;20197;-63
2023/05/03 12:56:16;;;;;;;;;;;;;;;;;;4974318;28;19921;-63
2023/05/03 12:58:48;;;;;;;;;;;;;;;;;;4956331;28;20000;-62
2023/05/03 13:01:14;;;;;;;;;;;;;;;;;;4989858;28;20435;-61
2023/05/03 13:03:39;;;;;;;;;;;;;;;;;;4990207;28;19926;-62
2023/05/03 13:06:06;;;;;;;;;;;;;;;;;;4988523;28;19929;-63
2023/05/03 13:08:34;;;;;;;;;;;;;;;;;;4974132;28;19917;-62
2023/05/03 13:11:03;;;;;;;;;;;;;;;;;;4973030;28;20293;-62
2023/05/03 13:13:32;;;;;;;;;;;;;;;;;;4962605;28;19933;-62
2023/05/03 13:15:58;;;;;;;;;;;;;;;;;;4972889;28;19925;-63
2023/05/03 13:18:24;;;;;;;;;;;;;;;;;;4972916;28;19928;-63
2023/05/03 13:20:50;;;;;;;;;;;;;;;;;;4954572;28;20340;-63
2023/05/03 13:23:16;;;;;;;;;;;;;;;;;;4972148;28;20019;-62
2023/05/03 13:25:44;;;;;;;;;;;;;;;;;;4972866;28;20465;-62
2023/05/03 13:28:11;;;;;;;;;;;;;;;;;;4988156;28;19960;-63
2023/05/03 13:30:39;;;;;;;;;;;;;;;;;;4987844;28;19983;-63
2023/05/03 13:33:05;;;;;;;;;;;;;;;;;;4987986;28;19925;-63
2023/05/03 13:35:35;;;;;;;;;;;;;;;;;;4991339;28;19925;-62
2023/05/03 13:38:01;;;;;;;;;;;;;;;;;;4974089;28;19921;-61
2023/05/03 13:40:29;;;;;;;;;;;;;;;;;;4988743;28;19952;-62
2023/05/03 13:42:54;;;;;;;;;;;;;;;;;;4985374;28;20444;-62
2023/05/03 13:45:20;;;;;;;;;;;;;;;;;;4953420;28;20278;-62
2023/05/03 13:47:45;;;;;;;;;;;;;;;;;;4989146;28;19921;-62
2023/05/03 13:50:11;;;;;;;;;;;;;;;;;;4971891;28;20533;-61
2023/05/03 13:52:36;;;;;;;;;;;;;;;;;;4976350;28;19921;-62
2023/05/03 13:55:03;;;;;;;;;;;;;;;;;;4958222;28;20006;-62
2023/05/03 13:57:28;;;;;;;;;;;;;;;;;;4958520;28;19921;-61
2023/05/03 13:59:55;;;;;;;;;;;;;;;;;;4960106;28;19972;-62
2023/05/03 14:02:21;;;;;;;;;;;;;;;;;;4975859;28;20424;-62
2023/05/03 14:04:50;;;;;;;;;;;;;;;;;;4993052;28;19960;-62
2023/05/03 14:07:15;;;;;;;;;;;;;;;;;;4976426;28;19984;-62
2023/05/03 14:09:43;;;;;;;;;;;;;;;;;;4993035;28;20377;-62
2023/05/03 14:12:08;;;;;;;;;;;;;;;;;;4991122;28;20464;-62
2023/05/03 14:14:36;;;;;;;;;;;;;;;;;;4952955;28;19980;-62
2023/05/03 14:17:07;;;;;;;;;;;;;;;;;;4969208;28;20542;-62
2023/05/03 14:19:36;;;;;;;;;;;;;;;;;;4993592;28;20489;-62
2023/05/03 14:22:03;;;;;;;;;;;;;;;;;;4975159;28;19921;-62
2023/05/03 14:24:31;;;;;;;;;;;;;;;;;;4974650;28;19945;-62
2023/05/03 14:26:58;;;;;;;;;;;;;;;;;;4959916;28;19928;-63
2023/05/03 14:29:23;;;;;;;;;;;;;;;;;;4991030;28;19928;-60
2023/05/03 14:31:49;;;;;;;;;;;;;;;;;;4994823;28;19925;-62
2023/05/03 14:34:17;;;;;;;;;;;;;;;;;;4987985;28;21013;-61
2023/05/03 14:36:45;;;;;;;;;;;;;;;;;;4991741;28;19921;-60
2023/05/03 14:39:13;;;;;;;;;;;;;;;;;;4960021;28;19922;-62
2023/05/03 14:41:38;;;;;;;;;;;;;;;;;;4962192;28;19921;-62
2023/05/03 14:44:05;;;;;;;;;;;;;;;;;;4970057;28;19970;-62
2023/05/03 14:46:33;;;;;;;;;;;;;;;;;;4956195;28;20316;-61
2023/05/03 14:49:01;;;;;;;;;;;;;;;;;;4958180;28;21501;-61
2023/05/03 14:51:26;;;;;;;;;;;;;;;;;;4955654;28;19921;-62
2023/05/03 14:53:52;;;;;;;;;;;;;;;;;;4958758;28;19921;-62
2023/05/03 14:56:20;;;;;;;;;;;;;;;;;;4974673;28;20459;-62
2023/05/03 14:58:45;;;;;;;;;;;;;;;;;;4973121;28;19917;-62
2023/05/03 15:01:10;;;;;;;;;;;;;;;;;;4969140;28;19948;-61
2023/05/03 15:03:39;;;;;;;;;;;;;;;;;;4976591;28;19929;-62
2023/05/03 15:06:08;;;;;;;;;;;;;;;;;;4975189;28;19933;-62
2023/05/03 15:08:34;;;;;;;;;;;;;;;;;;4974866;28;19936;-61
2023/05/03 15:10:59;;;;;;;;;;;;;;;;;;4973313;28;19922;-61
2023/05/03 15:13:27;;;;;;;;;;;;;;;;;;4991932;28;19948;-61
2023/05/03 15:15:52;;;;;;;;;;;;;;;;;;4967034;28;20412;-61
2023/05/03 15:18:19;;;;;;;;;;;;;;;;;;4974850;28;20292;-62
2023/05/03 15:20:46;;;;;;;;;;;;;;;;;;4955909;28;19922;-61
2023/05/03 15:23:14;;;;;;;;;;;;;;;;;;4972540;28;19921;-62
2023/05/03 15:25:40;;;;;;;;;;;;;;;;;;4956813;28;19918;-62
2023/05/03 15:28:05;;;;;;;;;;;;;;;;;;4973976;28;19960;-61
2023/05/03 15:30:31;;;;;;;;;;;;;;;;;;4992036;28;20479;-62
2023/05/03 15:32:57;;;;;;;;;;;;;;;;;;4964494;28;19975;-62
2023/05/03 15:35:24;;;;;;;;;;;;;;;;;;4975900;28;19931;-61
2023/05/03 15:37:53;;;;;;;;;;;;;;;;;;4973794;28;19921;-62
2023/05/03 15:40:19;;;;;;;;;;;;;;;;;;4973903;28;19921;-62
2023/05/03 15:42:44;;;;;;;;;;;;;;;;;;4958068;28;19921;-61
2023/05/03 15:45:12;;;;;;;;;;;;;;;;;;4973767;28;19932;-62
2023/05/03 15:47:38;;;;;;;;;;;;;;;;;;4973665;28;20384;-62
2023/05/03 15:50:04;;;;;;;;;;;;;;;;;;4989354;28;19917;-61
2023/05/03 15:52:30;;;;;;;;;;;;;;;;;;4956536;28;19925;-62
2023/05/03 15:54:55;;;;;;;;;;;;;;;;;;4991277;28;19932;-61
2023/05/03 15:57:26;;;;;;;;;;;;;;;;;;4956268;28;20284;-62
2023/05/03 15:59:54;;;;;;;;;;;;;;;;;;4992456;28;20127;-61
2023/05/03 16:02:22;;;;;;;;;;;;;;;;;;4969474;28;19967;-61
2023/05/03 16:04:50;;;;;;;;;;;;;;;;;;4975086;28;20501;-61
2023/05/03 16:07:18;;;;;;;;;;;;;;;;;;4973225;28;20015;-62
2023/05/03 16:09:49;;;;;;;;;;;;;;;;;;4973302;28;19918;-61
2023/05/03 16:12:17;;;;;;;;;;;;;;;;;;4972871;28;19929;-60
2023/05/03 16:14:45;;;;;;;;;;;;;;;;;;4988869;28;19932;-61
2023/05/03 16:17:10;;;;;;;;;;;;;;;;;;4970193;28;19926;-62
2023/05/03 16:19:36;;;;;;;;;;;;;;;;;;4970371;28;19926;-61
2023/05/03 16:22:01;;;;;;;;;;;;;;;;;;4973643;28;19964;-60
2023/05/03 16:24:28;;;;;;;;;;;;;;;;;;4991476;28;20389;-61
2023/05/03 16:26:56;;;;;;;;;;;;;;;;;;4972766;28;20049;-59
2023/05/03 16:29:24;;;;;;;;;;;;;;;;;;4988580;28;20292;-60
2023/05/03 16:31:50;;;;;;;;;;;;;;;;;;4966588;28;19921;-61
2023/05/03 16:34:20;;;;;;;;;;;;;;;;;;4973786;28;20154;-60
2023/05/03 16:36:46;;;;;;;;;;;;;;;;;;4990577;28;20046;-61
2023/05/03 16:39:11;;;;;;;;;;;;;;;;;;4972843;28;20439;-63
2023/05/03 16:41:36;;;;;;;;;;;;;;;;;;4957400;28;19921;-63